createdAt,value
2018-05-27T00:00:56.245Z,74.71
2018-05-27T00:01:56.267Z,75.87
2018-05-27T00:02:56.288Z,76.25
2018-05-27T00:03:56.315Z,76.82
2018-05-27T00:04:56.329Z,76.64
2018-05-27T00:05:56.356Z,76.73
2018-05-27T00:06:56.377Z,76.06
2018-05-27T00:07:56.402Z,76.79
2018-05-27T00:08:56.413Z,76.64
2018-05-27T00:09:56.437Z,76.15
2018-05-27T00:10:56.452Z,76.15
2018-05-27T00:11:56.479Z,75.67
2018-05-27T00:12:56.495Z,75.10
2018-05-27T00:13:56.565Z,76.64
2018-05-27T00:14:56.534Z,77.46
2018-05-27T00:15:56.559Z,77.26
2018-05-27T00:16:56.578Z,77.36
2018-05-27T00:17:56.602Z,77.65
2018-05-27T00:18:56.625Z,76.98
2018-05-27T00:19:56.647Z,77.17
2018-05-27T00:20:56.665Z,77.26
2018-05-27T00:21:56.704Z,77.46
2018-05-27T00:22:56.712Z,76.98
2018-05-27T00:23:56.731Z,77.46
2018-05-27T00:24:56.749Z,77.31
2018-05-27T00:25:56.801Z,77.21
2018-05-27T00:26:56.800Z,77.31
2018-05-27T00:27:56.812Z,77.50
2018-05-27T00:28:56.830Z,77.46
2018-05-27T00:29:56.868Z,77.11
2018-05-27T00:30:56.873Z,77.01
2018-05-27T00:31:56.894Z,76.82
2018-05-27T00:32:56.918Z,77.11
2018-05-27T00:33:56.934Z,77.75
2018-05-27T00:34:56.966Z,78.03
2018-05-27T00:35:56.973Z,77.88
2018-05-27T00:36:56.999Z,78.52
2018-05-27T00:37:57.019Z,78.42
2018-05-27T00:38:57.038Z,77.50
2018-05-27T00:39:57.060Z,78.36
2018-05-27T00:40:57.078Z,77.75
2018-05-27T00:41:57.110Z,77.11
2018-05-27T00:42:57.138Z,77.01
2018-05-27T00:43:57.151Z,76.73
2018-05-27T00:44:57.162Z,77.31
2018-05-27T00:45:57.181Z,76.15
2018-05-27T00:46:57.201Z,76.44
2018-05-27T00:47:57.225Z,76.54
2018-05-27T00:48:57.258Z,76.44
2018-05-27T00:49:57.288Z,76.34
2018-05-27T00:50:57.292Z,76.82
2018-05-27T00:51:57.319Z,77.21
2018-05-27T00:52:57.358Z,77.17
2018-05-27T00:53:57.361Z,79.47
2018-05-27T00:54:57.373Z,79.72
2018-05-27T00:55:57.392Z,80.11
2018-05-27T00:56:57.417Z,80.20
2018-05-27T00:57:57.435Z,80.20
2018-05-27T00:58:57.455Z,79.63
2018-05-27T00:59:57.476Z,79.53
2018-05-27T01:00:57.503Z,79.47
2018-05-27T01:01:57.520Z,78.03
2018-05-27T01:02:57.538Z,78.99
2018-05-27T01:03:57.564Z,78.90
2018-05-27T01:04:57.583Z,78.70
2018-05-27T01:05:57.604Z,80.30
2018-05-27T01:06:57.628Z,80.30
2018-05-27T01:07:57.642Z,80.97
2018-05-27T01:08:57.659Z,80.97
2018-05-27T01:09:57.690Z,80.40
2018-05-27T01:10:57.707Z,80.30
2018-05-27T01:11:57.730Z,81.16
2018-05-27T01:12:57.749Z,82.85
2018-05-27T01:13:57.765Z,82.46
2018-05-27T01:14:57.784Z,81.64
2018-05-27T01:15:57.808Z,80.78
2018-05-27T01:16:57.827Z,80.73
2018-05-27T01:17:57.877Z,80.01
2018-05-27T01:18:57.870Z,80.01
2018-05-27T01:19:57.896Z,81.16
2018-05-27T01:20:57.919Z,80.43
2018-05-27T01:21:57.930Z,79.44
2018-05-27T01:22:57.955Z,79.63
2018-05-27T01:23:57.976Z,80.40
2018-05-27T01:24:57.999Z,80.20
2018-05-27T01:25:58.018Z,81.07
2018-05-27T01:26:58.042Z,82.37
2018-05-27T01:27:58.057Z,83.04
2018-05-27T01:28:58.080Z,81.84
2018-05-27T01:29:58.097Z,81.45
2018-05-27T01:30:58.121Z,81.64
2018-05-27T01:31:58.153Z,81.98
2018-05-27T01:32:58.165Z,81.84
2018-05-27T01:33:58.185Z,82.27
2018-05-27T01:34:58.205Z,83.29
2018-05-27T01:35:58.233Z,85.54
2018-05-27T01:36:58.252Z,85.01
2018-05-27T01:37:58.265Z,83.04
2018-05-27T01:38:58.298Z,82.56
2018-05-27T01:39:58.307Z,83.23
2018-05-27T01:40:58.335Z,83.67
2018-05-27T01:41:58.345Z,84.05
2018-05-27T01:42:58.370Z,83.76
2018-05-27T01:43:58.388Z,83.14
2018-05-27T01:44:58.410Z,82.65
2018-05-27T01:45:58.425Z,83.42
2018-05-27T01:46:58.476Z,83.04
2018-05-27T01:47:58.480Z,82.18
2018-05-27T01:48:58.492Z,82.27
2018-05-27T01:49:58.510Z,81.70
2018-05-27T01:50:58.540Z,81.60
2018-05-27T01:51:58.550Z,82.18
2018-05-27T01:52:58.587Z,82.56
2018-05-27T01:53:58.599Z,84.25
2018-05-27T01:54:58.619Z,84.72
2018-05-27T01:55:58.638Z,84.15
2018-05-27T01:56:58.655Z,83.48
2018-05-27T01:57:58.683Z,83.33
2018-05-27T01:58:58.705Z,82.37
2018-05-27T01:59:58.726Z,81.51
2018-05-27T02:00:58.736Z,81.98
2018-05-27T02:01:58.756Z,83.19
2018-05-27T02:02:58.785Z,84.72
2018-05-27T02:03:58.798Z,84.82
2018-05-27T02:04:58.821Z,84.15
2018-05-27T02:05:58.857Z,85.83
2018-05-27T02:06:58.866Z,86.12
2018-05-27T02:07:58.890Z,84.53
2018-05-27T02:08:58.916Z,84.05
2018-05-27T02:09:58.923Z,83.76
2018-05-27T02:10:58.952Z,84.34
2018-05-27T02:11:58.961Z,84.44
2018-05-27T02:12:58.981Z,84.39
2018-05-27T02:13:59.015Z,84.88
2018-05-27T02:14:59.051Z,83.76
2018-05-27T02:15:59.053Z,83.48
2018-05-27T02:16:59.077Z,83.86
2018-05-27T02:17:59.089Z,84.78
2018-05-27T02:18:59.106Z,84.49
2018-05-27T02:19:59.130Z,84.97
2018-05-27T02:20:59.149Z,86.02
2018-05-27T02:21:59.176Z,85.25
2018-05-27T02:22:59.189Z,85.25
2018-05-27T02:23:59.209Z,85.45
2018-05-27T02:24:59.238Z,85.88
2018-05-27T02:25:59.273Z,87.13
2018-05-27T02:26:59.269Z,87.61
2018-05-27T02:27:59.293Z,87.23
2018-05-27T02:28:59.308Z,86.46
2018-05-27T02:29:59.352Z,86.65
2018-05-27T02:30:59.348Z,86.17
2018-05-27T02:31:59.382Z,85.83
2018-05-27T02:32:59.390Z,85.16
2018-05-27T02:33:59.417Z,84.88
2018-05-27T02:34:59.435Z,85.12
2018-05-27T02:35:59.467Z,85.98
2018-05-27T02:36:59.469Z,85.79
2018-05-27T02:37:59.492Z,85.25
2018-05-27T02:38:59.536Z,85.60
2018-05-27T02:39:59.541Z,84.88
2018-05-27T02:40:59.552Z,84.49
2018-05-27T02:41:59.576Z,83.82
2018-05-27T02:42:59.617Z,84.74
2018-05-27T02:43:59.612Z,84.20
2018-05-27T02:44:59.636Z,84.20
2018-05-27T02:45:59.663Z,84.01
2018-05-27T02:46:59.676Z,83.44
2018-05-27T02:47:59.700Z,83.25
2018-05-27T02:48:59.717Z,83.29
2018-05-27T02:49:59.737Z,83.19
2018-05-27T02:50:59.766Z,83.29
2018-05-27T02:51:59.776Z,84.49
2018-05-27T02:52:59.808Z,84.78
2018-05-27T02:53:59.812Z,84.58
2018-05-27T02:54:59.837Z,84.30
2018-05-27T02:55:59.856Z,84.39
2018-05-27T02:56:59.882Z,85.69
2018-05-27T02:57:59.893Z,85.54
2018-05-27T02:58:59.913Z,85.16
2018-05-27T02:59:59.936Z,84.11
2018-05-27T03:00:59.954Z,83.67
2018-05-27T03:01:59.986Z,82.86
2018-05-27T03:02:59.996Z,82.67
2018-05-27T03:04:00.023Z,83.25
2018-05-27T03:05:00.037Z,84.30
2018-05-27T03:06:00.056Z,84.20
2018-05-27T03:07:00.090Z,84.49
2018-05-27T03:08:00.117Z,83.95
2018-05-27T03:09:00.122Z,83.82
2018-05-27T03:10:00.141Z,83.67
2018-05-27T03:11:00.160Z,83.76
2018-05-27T03:12:00.181Z,83.76
2018-05-27T03:13:00.195Z,83.48
2018-05-27T03:14:00.219Z,83.38
2018-05-27T03:15:00.236Z,83.48
2018-05-27T03:16:00.261Z,83.38
2018-05-27T03:17:00.278Z,84.11
2018-05-27T03:18:00.302Z,85.06
2018-05-27T03:19:00.317Z,85.06
2018-05-27T03:20:00.337Z,86.31
2018-05-27T03:21:00.359Z,86.12
2018-05-27T03:22:00.388Z,86.36
2018-05-27T03:23:00.429Z,86.55
2018-05-27T03:24:00.438Z,87.03
2018-05-27T03:25:00.445Z,87.41
2018-05-27T03:26:00.461Z,86.84
2018-05-27T03:27:00.482Z,87.03
2018-05-27T03:28:00.498Z,87.03
2018-05-27T03:29:00.520Z,86.36
2018-05-27T03:30:00.543Z,87.76
2018-05-27T03:31:00.564Z,87.76
2018-05-27T03:32:00.604Z,87.76
2018-05-27T03:33:00.613Z,87.85
2018-05-27T03:34:00.633Z,87.47
2018-05-27T03:35:00.648Z,87.23
2018-05-27T03:36:00.670Z,86.21
2018-05-27T03:37:00.681Z,84.58
2018-05-27T03:38:00.713Z,84.68
2018-05-27T03:39:00.728Z,84.78
2018-05-27T03:40:00.745Z,84.11
2018-05-27T03:41:00.770Z,84.68
2018-05-27T03:42:00.783Z,84.30
2018-05-27T03:43:00.803Z,84.78
2018-05-27T03:44:00.836Z,84.58
2018-05-27T03:45:00.856Z,85.74
2018-05-27T03:46:00.869Z,84.68
2018-05-27T03:47:00.889Z,84.49
2018-05-27T03:48:00.904Z,84.30
2018-05-27T03:49:00.938Z,85.06
2018-05-27T03:50:00.949Z,84.68
2018-05-27T03:51:00.983Z,84.49
2018-05-27T03:52:00.987Z,84.78
2018-05-27T03:53:01.004Z,85.45
2018-05-27T03:54:01.029Z,85.54
2018-05-27T03:55:01.049Z,85.35
2018-05-27T03:56:01.072Z,85.88
2018-05-27T03:57:01.087Z,87.51
2018-05-27T03:58:01.128Z,87.23
2018-05-27T03:59:01.132Z,87.08
2018-05-27T04:00:01.150Z,86.65
2018-05-27T04:01:01.174Z,86.46
2018-05-27T04:02:01.192Z,85.93
2018-05-27T04:03:01.211Z,86.08
2018-05-27T04:04:01.229Z,86.36
2018-05-27T04:05:01.246Z,85.88
2018-05-27T04:06:01.271Z,86.08
2018-05-27T04:07:01.291Z,86.12
2018-05-27T04:08:01.313Z,86.02
2018-05-27T04:09:01.334Z,85.98
2018-05-27T04:10:01.349Z,85.79
2018-05-27T04:11:01.372Z,84.97
2018-05-27T04:12:01.394Z,85.16
2018-05-27T04:13:01.416Z,85.88
2018-05-27T04:14:01.436Z,85.93
2018-05-27T04:15:01.467Z,85.54
2018-05-27T04:16:01.481Z,85.54
2018-05-27T04:17:01.495Z,84.97
2018-05-27T04:18:01.520Z,84.15
2018-05-27T04:19:01.532Z,83.58
2018-05-27T04:20:01.556Z,83.67
2018-05-27T04:21:01.571Z,83.67
2018-05-27T04:22:01.600Z,84.63
2018-05-27T04:23:01.618Z,84.44
2018-05-27T04:24:01.672Z,83.33
2018-05-27T04:25:01.673Z,83.09
2018-05-27T04:26:01.674Z,84.05
2018-05-27T04:27:01.707Z,84.34
2018-05-27T04:28:01.722Z,83.76
2018-05-27T04:29:01.741Z,84.58
2018-05-27T04:30:01.758Z,84.72
2018-05-27T04:31:01.774Z,83.95
2018-05-27T04:32:01.801Z,83.09
2018-05-27T04:33:01.819Z,84.58
2018-05-27T04:34:01.845Z,86.41
2018-05-27T04:35:01.862Z,86.31
2018-05-27T04:36:01.882Z,84.63
2018-05-27T04:37:01.900Z,83.52
2018-05-27T04:38:01.928Z,83.38
2018-05-27T04:39:01.939Z,85.30
2018-05-27T04:40:01.976Z,83.61
2018-05-27T04:41:01.992Z,82.94
2018-05-27T04:42:02.012Z,82.41
2018-05-27T04:43:02.035Z,80.87
2018-05-27T04:44:02.046Z,80.78
2018-05-27T04:45:02.068Z,81.98
2018-05-27T04:46:02.089Z,82.85
2018-05-27T04:47:02.107Z,82.85
2018-05-27T04:48:02.130Z,82.94
2018-05-27T04:49:02.152Z,83.81
2018-05-27T04:50:02.176Z,83.23
2018-05-27T04:51:02.197Z,84.09
2018-05-27T04:52:02.208Z,83.81
2018-05-27T04:53:02.233Z,82.35
2018-05-27T04:54:02.271Z,80.53
2018-05-27T04:55:02.282Z,79.42
2018-05-27T04:56:02.299Z,77.53
2018-05-27T04:57:02.314Z,77.73
2018-05-27T04:58:02.339Z,77.13
2018-05-27T04:59:02.378Z,73.42
2018-05-27T05:00:02.388Z,72.84
2018-05-27T05:01:02.407Z,73.16
2018-05-27T05:02:02.431Z,70.67
2018-05-27T05:03:02.450Z,66.59
2018-05-27T05:04:02.490Z,64.15
2018-05-27T05:05:02.503Z,66.11
2018-05-27T05:06:02.530Z,63.43
2018-05-27T05:07:02.547Z,59.63
2018-05-27T05:08:02.573Z,57.43
2018-05-27T05:09:02.603Z,55.74
2018-05-27T05:10:02.636Z,54.14
2018-05-27T05:11:02.644Z,51.72
2018-05-27T05:12:02.680Z,51.33
2018-05-27T05:13:02.699Z,50.68
2018-05-27T05:14:02.718Z,49.92
2018-05-27T05:15:02.746Z,50.58
2018-05-27T05:16:02.783Z,50.34
2018-05-27T05:17:02.796Z,50.48
2018-05-27T05:18:02.821Z,50.29
2018-05-27T05:19:02.855Z,51.50
2018-05-27T05:20:02.877Z,51.55
2018-05-27T05:21:02.900Z,49.82
2018-05-27T05:22:02.971Z,49.00
2018-05-27T05:23:02.962Z,47.17
2018-05-27T05:24:02.983Z,46.47
2018-05-27T05:25:03.007Z,45.98
2018-05-27T05:26:03.038Z,46.77
2018-05-27T05:27:03.077Z,46.74
2018-05-27T05:28:03.091Z,47.81
2018-05-27T05:29:03.115Z,46.96
2018-05-27T05:30:03.141Z,46.42
2018-05-27T05:31:03.176Z,44.34
2018-05-27T05:32:03.200Z,42.51
2018-05-27T05:33:03.242Z,41.73
2018-05-27T05:34:03.262Z,42.71
2018-05-27T05:35:03.368Z,42.07
2018-05-27T05:36:03.330Z,41.91
2018-05-27T05:37:03.339Z,44.10
2018-05-27T05:38:03.370Z,44.10
2018-05-27T05:39:03.400Z,43.54
2018-05-27T05:40:03.430Z,43.33
2018-05-27T05:41:03.464Z,44.10
2018-05-27T05:42:03.478Z,43.64
2018-05-27T05:43:03.510Z,43.62
2018-05-27T05:44:03.541Z,45.00
2018-05-27T05:45:03.564Z,45.32
2018-05-27T05:46:03.606Z,47.42
2018-05-27T05:47:03.621Z,49.90
2018-05-27T05:48:03.669Z,49.99
2018-05-27T05:49:03.692Z,50.74
2018-05-27T05:50:03.717Z,49.90
2018-05-27T05:51:03.748Z,49.46
2018-05-27T05:52:03.773Z,48.41
2018-05-27T05:53:03.798Z,47.83
2018-05-27T05:54:03.834Z,47.64
2018-05-27T05:55:03.855Z,46.71
2018-05-27T05:56:03.883Z,45.34
2018-05-27T05:57:03.915Z,42.19
2018-05-27T05:58:03.945Z,40.66
2018-05-27T05:59:03.974Z,40.06
2018-05-27T06:00:04.002Z,42.69
2018-05-27T06:01:04.047Z,44.96
2018-05-27T06:02:04.066Z,46.78
2018-05-27T06:03:04.096Z,47.13
2018-05-27T06:04:04.125Z,47.08
2018-05-27T06:05:04.151Z,48.54
2018-05-27T06:06:04.186Z,47.42
2018-05-27T06:07:04.212Z,45.39
2018-05-27T06:08:04.245Z,42.89
2018-05-27T06:09:04.271Z,41.00
2018-05-27T06:10:04.304Z,40.41
2018-05-27T06:11:04.332Z,39.96
2018-05-27T06:12:04.367Z,38.04
2018-05-27T06:13:04.399Z,38.10
2018-05-27T06:14:04.422Z,40.45
2018-05-27T06:15:04.482Z,42.69
2018-05-27T06:16:04.493Z,40.80
2018-05-27T06:17:04.514Z,39.37
2018-05-27T06:18:04.545Z,39.06
2018-05-27T06:19:04.578Z,38.96
2018-05-27T06:20:04.608Z,38.39
2018-05-27T06:21:04.633Z,38.16
2018-05-27T06:22:04.661Z,38.45
2018-05-27T06:23:04.697Z,38.37
2018-05-27T06:24:04.727Z,40.19
2018-05-27T06:25:04.753Z,39.53
2018-05-27T06:26:04.782Z,40.37
2018-05-27T06:27:04.816Z,42.00
2018-05-27T06:28:04.843Z,42.55
2018-05-27T06:29:04.876Z,41.42
2018-05-27T06:30:04.904Z,39.62
2018-05-27T06:31:04.924Z,37.96
2018-05-27T06:32:04.961Z,41.02
2018-05-27T06:33:04.984Z,40.33
2018-05-27T06:34:05.019Z,39.47
2018-05-27T06:35:05.049Z,40.92
2018-05-27T06:36:05.080Z,39.88
2018-05-27T06:37:05.111Z,41.09
2018-05-27T06:38:05.140Z,42.71
2018-05-27T06:39:05.164Z,41.62
2018-05-27T06:40:05.193Z,38.43
2018-05-27T06:41:05.231Z,38.92
2018-05-27T06:42:05.253Z,39.98
2018-05-27T06:43:05.284Z,37.88
2018-05-27T06:44:05.323Z,38.53
2018-05-27T06:45:05.421Z,38.45
2018-05-27T06:46:05.393Z,38.10
2018-05-27T06:47:05.405Z,37.90
2018-05-27T06:48:05.449Z,38.82
2018-05-27T06:49:05.478Z,39.96
2018-05-27T06:50:05.537Z,41.05
2018-05-27T06:51:05.547Z,39.94
2018-05-27T06:52:05.561Z,38.92
2018-05-27T06:53:05.604Z,38.89
2018-05-27T06:54:05.627Z,39.33
2018-05-27T06:55:05.652Z,40.43
2018-05-27T06:56:05.684Z,40.70
2018-05-27T06:57:05.725Z,40.35
2018-05-27T06:58:05.754Z,40.21
2018-05-27T06:59:05.789Z,42.03
2018-05-27T07:00:05.802Z,37.15
2018-05-27T07:01:05.846Z,37.19
2018-05-27T07:02:05.866Z,39.53
2018-05-27T07:03:05.901Z,39.62
2018-05-27T07:04:05.929Z,39.37
2018-05-27T07:05:05.963Z,39.57
2018-05-27T07:06:06.689Z,39.28
2018-05-27T07:07:06.062Z,40.14
2018-05-27T07:08:06.056Z,39.62
2018-05-27T07:09:06.088Z,36.45
2018-05-27T07:10:06.114Z,37.81
2018-05-27T07:11:06.147Z,37.39
2018-05-27T07:12:06.173Z,37.51
2018-05-27T07:13:06.205Z,38.78
2018-05-27T07:14:06.257Z,40.09
2018-05-27T07:15:06.291Z,38.76
2018-05-27T07:16:06.312Z,38.28
2018-05-27T07:17:06.392Z,36.37
2018-05-27T07:18:06.364Z,34.49
2018-05-27T07:19:06.418Z,32.56
2018-05-27T07:20:06.436Z,32.00
2018-05-27T07:21:06.462Z,31.23
2018-05-27T07:22:06.514Z,33.43
2018-05-27T07:23:06.525Z,35.21
2018-05-27T07:24:06.557Z,35.94
2018-05-27T07:25:06.589Z,38.10
2018-05-27T07:26:06.620Z,37.49
2018-05-27T07:27:06.649Z,38.39
2018-05-27T07:28:06.686Z,39.59
2018-05-27T07:29:06.717Z,38.57
2018-05-27T07:30:06.740Z,38.47
2018-05-27T07:31:06.775Z,37.35
2018-05-27T07:32:06.799Z,33.74
2018-05-27T07:33:06.828Z,31.03
2018-05-27T07:34:06.877Z,32.02
2018-05-27T07:35:06.891Z,35.11
2018-05-27T07:36:06.921Z,35.58
2018-05-27T07:37:06.962Z,37.23
2018-05-27T07:38:06.987Z,38.47
2018-05-27T07:39:07.014Z,40.00
2018-05-27T07:40:07.044Z,36.30
2018-05-27T07:41:07.080Z,33.39
2018-05-27T07:42:07.109Z,32.59
2018-05-27T07:43:07.138Z,33.15
2018-05-27T07:44:07.171Z,35.93
2018-05-27T07:45:07.211Z,34.74
2018-05-27T07:46:07.232Z,35.23
2018-05-27T07:47:07.271Z,35.80
2018-05-27T07:48:07.292Z,36.37
2018-05-27T07:49:07.326Z,37.21
2018-05-27T07:50:07.366Z,38.18
2018-05-27T07:51:07.387Z,38.47
2018-05-27T07:52:07.421Z,37.69
2018-05-27T07:53:07.450Z,38.94
2018-05-27T07:54:07.478Z,38.29
2018-05-27T07:55:07.522Z,36.68
2018-05-27T07:56:07.559Z,35.72
2018-05-27T07:57:07.569Z,36.62
2018-05-27T07:58:07.620Z,35.57
2018-05-27T07:59:07.637Z,31.92
2018-05-27T08:00:07.662Z,33.87
2018-05-27T08:01:07.696Z,36.05
2018-05-27T08:02:07.742Z,34.89
2018-05-27T08:03:07.754Z,31.21
2018-05-27T08:04:07.784Z,31.04
2018-05-27T08:05:07.817Z,31.73
2018-05-27T08:06:07.848Z,34.05
2018-05-27T08:07:07.909Z,35.26
2018-05-27T08:08:07.907Z,33.80
2018-05-27T08:09:07.948Z,32.95
2018-05-27T08:10:07.971Z,33.49
2018-05-27T08:11:08.006Z,35.21
2018-05-27T08:12:08.034Z,35.52
2018-05-27T08:13:08.067Z,34.15
2018-05-27T08:14:08.102Z,35.00
2018-05-27T08:15:08.130Z,35.13
2018-05-27T08:16:08.168Z,32.57
2018-05-27T08:17:08.183Z,30.27
2018-05-27T08:18:08.212Z,31.80
2018-05-27T08:19:08.246Z,31.82
2018-05-27T08:20:08.274Z,32.89
2018-05-27T08:21:08.302Z,34.85
2018-05-27T08:22:08.330Z,34.58
2018-05-27T08:23:08.374Z,34.78
2018-05-27T08:24:08.406Z,35.96
2018-05-27T08:25:08.494Z,33.97
2018-05-27T08:26:08.448Z,32.92
2018-05-27T08:27:08.479Z,34.28
2018-05-27T08:28:08.509Z,36.51
2018-05-27T08:29:08.535Z,38.12
2018-05-27T08:30:08.584Z,38.76
2018-05-27T08:31:08.591Z,38.45
2018-05-27T08:32:08.620Z,41.31
2018-05-27T08:33:08.648Z,43.41
2018-05-27T08:34:08.676Z,41.89
2018-05-27T08:35:08.758Z,42.54
2018-05-27T08:36:08.727Z,42.32
2018-05-27T08:37:08.752Z,45.81
2018-05-27T08:38:08.783Z,46.10
2018-05-27T08:39:08.818Z,45.42
2018-05-27T08:40:08.842Z,44.24
2018-05-27T08:41:08.863Z,45.03
2018-05-27T08:42:08.894Z,45.34
2018-05-27T08:43:08.914Z,45.51
2018-05-27T08:44:08.960Z,44.37
2018-05-27T08:45:08.967Z,44.93
2018-05-27T08:46:08.992Z,45.78
2018-05-27T08:47:09.021Z,47.25
2018-05-27T08:48:09.045Z,46.97
2018-05-27T08:49:09.074Z,48.54
2018-05-27T08:50:09.100Z,47.15
2018-05-27T08:51:09.127Z,48.39
2018-05-27T08:52:09.154Z,49.27
2018-05-27T08:53:09.173Z,48.49
2018-05-27T08:54:09.208Z,47.44
2018-05-27T08:55:09.233Z,45.61
2018-05-27T08:56:09.259Z,45.12
2018-05-27T08:57:09.274Z,46.08
2018-05-27T08:58:09.307Z,45.49
2018-05-27T08:59:09.333Z,46.88
2018-05-27T09:00:09.358Z,46.49
2018-05-27T09:01:09.428Z,47.07
2018-05-27T09:02:09.421Z,46.44
2018-05-27T09:03:09.437Z,48.51
2018-05-27T09:04:09.456Z,46.00
2018-05-27T09:05:09.478Z,46.56
2018-05-27T09:06:09.513Z,47.20
2018-05-27T09:07:09.536Z,48.10
2018-05-27T09:08:09.558Z,48.07
2018-05-27T09:09:09.584Z,49.24
2018-05-27T09:10:09.610Z,48.75
2018-05-27T09:11:09.634Z,47.80
2018-05-27T09:12:09.656Z,47.44
2018-05-27T09:13:09.690Z,47.83
2018-05-27T09:14:09.708Z,46.37
2018-05-27T09:15:09.808Z,47.61
2018-05-27T09:16:09.761Z,47.49
2018-05-27T09:17:09.784Z,47.52
2018-05-27T09:18:09.811Z,45.88
2018-05-27T09:19:09.843Z,45.74
2018-05-27T09:20:09.868Z,50.02
2018-05-27T09:21:09.883Z,49.80
2018-05-27T09:22:09.911Z,48.03
2018-05-27T09:23:09.957Z,48.34
2018-05-27T09:24:09.966Z,47.61
2018-05-27T09:25:09.996Z,47.63
2018-05-27T09:26:10.014Z,46.95
2018-05-27T09:27:10.044Z,47.03
2018-05-27T09:28:10.080Z,46.25
2018-05-27T09:29:10.085Z,48.39
2018-05-27T09:30:10.114Z,46.61
2018-05-27T09:31:10.151Z,47.59
2018-05-27T09:32:10.167Z,47.17
2018-05-27T09:33:10.190Z,46.30
2018-05-27T09:34:10.217Z,47.08
2018-05-27T09:35:10.239Z,44.40
2018-05-27T09:36:10.264Z,44.20
2018-05-27T09:37:10.288Z,45.54
2018-05-27T09:38:10.312Z,47.20
2018-05-27T09:39:10.391Z,45.95
2018-05-27T09:40:10.369Z,46.20
2018-05-27T09:41:10.403Z,45.62
2018-05-27T09:42:10.414Z,46.18
2018-05-27T09:43:10.437Z,47.54
2018-05-27T09:44:10.462Z,46.13
2018-05-27T09:45:10.507Z,45.47
2018-05-27T09:46:10.513Z,45.54
2018-05-27T09:47:10.543Z,47.13
2018-05-27T09:48:10.567Z,46.61
2018-05-27T09:49:10.589Z,45.74
2018-05-27T09:50:10.616Z,47.59
2018-05-27T09:51:10.732Z,45.88
2018-05-27T09:52:10.661Z,45.39
2018-05-27T09:53:10.692Z,44.44
2018-05-27T09:54:10.768Z,45.00
2018-05-27T09:55:10.742Z,42.79
2018-05-27T09:56:10.762Z,42.59
2018-05-27T09:57:10.786Z,42.69
2018-05-27T09:58:10.851Z,43.57
2018-05-27T09:59:10.868Z,42.18
2018-05-27T10:00:10.871Z,43.04
2018-05-27T10:01:10.887Z,42.76
2018-05-27T10:02:10.915Z,43.40
2018-05-27T10:03:10.938Z,42.57
2018-05-27T10:04:10.972Z,43.44
2018-05-27T10:05:10.990Z,43.35
2018-05-27T10:06:11.013Z,43.25
2018-05-27T10:07:11.054Z,43.13
2018-05-27T10:08:11.066Z,45.68
2018-05-27T10:09:11.092Z,44.05
2018-05-27T10:10:11.115Z,43.00
2018-05-27T10:11:11.145Z,45.25
2018-05-27T10:12:11.165Z,45.98
2018-05-27T10:13:11.193Z,45.22
2018-05-27T10:14:11.213Z,45.08
2018-05-27T10:15:11.238Z,45.18
2018-05-27T10:16:11.273Z,45.64
2018-05-27T10:17:11.293Z,45.28
2018-05-27T10:18:11.320Z,43.35
2018-05-27T10:19:11.342Z,41.89
2018-05-27T10:20:11.376Z,42.66
2018-05-27T10:21:11.389Z,43.84
2018-05-27T10:22:11.414Z,43.84
2018-05-27T10:23:11.445Z,43.57
2018-05-27T10:24:11.472Z,42.57
2018-05-27T10:25:11.490Z,44.10
2018-05-27T10:26:11.524Z,43.74
2018-05-27T10:27:11.543Z,42.90
2018-05-27T10:28:11.570Z,42.18
2018-05-27T10:29:11.592Z,42.40
2018-05-27T10:30:11.623Z,42.20
2018-05-27T10:31:11.650Z,40.95
2018-05-27T10:32:11.676Z,41.66
2018-05-27T10:33:11.702Z,42.61
2018-05-27T10:34:11.726Z,42.30
2018-05-27T10:35:11.752Z,43.47
2018-05-27T10:36:11.774Z,41.27
2018-05-27T10:37:11.799Z,42.54
2018-05-27T10:38:11.832Z,39.82
2018-05-27T10:39:11.908Z,38.35
2018-05-27T10:40:11.871Z,39.43
2018-05-27T10:41:11.900Z,39.86
2018-05-27T10:42:11.925Z,40.56
2018-05-27T10:43:11.946Z,40.68
2018-05-27T10:44:11.973Z,40.41
2018-05-27T10:45:12.005Z,39.53
2018-05-27T10:46:12.043Z,41.19
2018-05-27T10:47:12.051Z,41.02
2018-05-27T10:48:12.081Z,40.97
2018-05-27T10:49:12.099Z,39.62
2018-05-27T10:50:12.125Z,40.29
2018-05-27T10:51:12.157Z,39.33
2018-05-27T10:52:12.245Z,39.88
2018-05-27T10:53:12.202Z,40.86
2018-05-27T10:54:12.234Z,41.63
2018-05-27T10:55:12.256Z,41.07
2018-05-27T10:56:12.283Z,39.82
2018-05-27T10:57:12.307Z,38.34
2018-05-27T10:58:12.332Z,38.24
2018-05-27T10:59:12.353Z,40.41
2018-05-27T11:00:12.386Z,40.09
2018-05-27T11:01:12.409Z,39.39
2018-05-27T11:02:12.438Z,40.88
2018-05-27T11:03:12.458Z,39.69
2018-05-27T11:04:12.488Z,39.49
2018-05-27T11:05:12.509Z,39.22
2018-05-27T11:06:12.537Z,37.93
2018-05-27T11:07:12.560Z,38.02
2018-05-27T11:08:12.588Z,37.52
2018-05-27T11:09:12.612Z,38.40
2018-05-27T11:10:12.636Z,38.69
2018-05-27T11:11:12.660Z,38.40
2018-05-27T11:12:12.700Z,39.20
2018-05-27T11:13:12.712Z,38.90
2018-05-27T11:14:12.746Z,38.43
2018-05-27T11:15:12.766Z,40.29
2018-05-27T11:16:12.789Z,37.37
2018-05-27T11:17:12.818Z,37.27
2018-05-27T11:18:12.849Z,37.85
2018-05-27T11:19:12.867Z,37.37
2018-05-27T11:20:12.897Z,37.96
2018-05-27T11:21:12.924Z,38.06
2018-05-27T11:22:12.943Z,37.19
2018-05-27T11:23:12.981Z,37.27
2018-05-27T11:24:12.996Z,36.39
2018-05-27T11:25:13.020Z,36.19
2018-05-27T11:26:13.052Z,37.05
2018-05-27T11:27:13.073Z,37.75
2018-05-27T11:28:13.093Z,37.38
2018-05-27T11:29:13.123Z,38.26
2018-05-27T11:30:13.148Z,38.26
2018-05-27T11:31:13.198Z,35.12
2018-05-27T11:32:13.208Z,35.10
2018-05-27T11:33:13.222Z,35.41
2018-05-27T11:34:13.256Z,35.90
2018-05-27T11:35:13.277Z,37.46
2018-05-27T11:36:13.299Z,35.43
2018-05-27T11:37:13.332Z,36.49
2018-05-27T11:38:13.355Z,35.33
2018-05-27T11:39:13.376Z,35.63
2018-05-27T11:40:13.414Z,36.02
2018-05-27T11:41:13.432Z,37.57
2018-05-27T11:42:13.463Z,38.84
2018-05-27T11:43:13.487Z,39.02
2018-05-27T11:44:13.516Z,36.96
2018-05-27T11:45:13.531Z,35.90
2018-05-27T11:46:13.556Z,37.17
2018-05-27T11:47:13.584Z,37.07
2018-05-27T11:48:13.612Z,39.22
2018-05-27T11:49:13.639Z,37.83
2018-05-27T11:50:13.662Z,39.41
2018-05-27T11:51:13.689Z,40.19
2018-05-27T11:52:13.712Z,40.00
2018-05-27T11:53:13.748Z,38.92
2018-05-27T11:54:13.769Z,39.41
2018-05-27T11:55:13.792Z,40.86
2018-05-27T11:56:13.860Z,39.90
2018-05-27T11:57:13.849Z,37.17
2018-05-27T11:58:13.870Z,36.41
2018-05-27T11:59:13.896Z,37.87
2018-05-27T12:00:13.920Z,38.14
2018-05-27T12:01:13.950Z,38.02
2018-05-27T12:02:13.976Z,37.25
2018-05-27T12:03:13.996Z,38.79
2018-05-27T12:04:14.024Z,40.08
2018-05-27T12:05:14.047Z,41.42
2018-05-27T12:06:14.077Z,39.18
2018-05-27T12:07:14.110Z,39.49
2018-05-27T12:08:14.130Z,38.40
2018-05-27T12:09:14.260Z,40.08
2018-05-27T12:10:14.185Z,40.66
2018-05-27T12:11:14.203Z,41.46
2018-05-27T12:12:14.230Z,39.39
2018-05-27T12:13:14.252Z,38.98
2018-05-27T12:14:14.285Z,39.69
2018-05-27T12:15:14.307Z,39.51
2018-05-27T12:16:14.354Z,39.51
2018-05-27T12:17:14.362Z,40.08
2018-05-27T12:18:14.383Z,39.86
2018-05-27T12:19:14.410Z,40.50
2018-05-27T12:20:14.436Z,39.90
2018-05-27T12:21:14.462Z,39.61
2018-05-27T12:22:14.496Z,38.75
2018-05-27T12:23:14.508Z,38.65
2018-05-27T12:24:14.538Z,39.51
2018-05-27T12:25:14.570Z,39.57
2018-05-27T12:26:14.602Z,39.08
2018-05-27T12:27:14.617Z,39.39
2018-05-27T12:28:14.636Z,41.32
2018-05-27T12:29:14.670Z,41.83
2018-05-27T12:30:14.726Z,39.86
2018-05-27T12:31:14.713Z,39.39
2018-05-27T12:32:14.740Z,37.19
2018-05-27T12:33:14.769Z,37.01
2018-05-27T12:34:14.800Z,37.85
2018-05-27T12:35:14.816Z,37.87
2018-05-27T12:36:14.843Z,40.48
2018-05-27T12:37:14.873Z,41.27
2018-05-27T12:38:14.897Z,38.53
2018-05-27T12:39:14.918Z,38.73
2018-05-27T12:40:14.951Z,38.45
2018-05-27T12:41:14.979Z,38.87
2018-05-27T12:42:15.003Z,38.43
2018-05-27T12:43:15.017Z,39.80
2018-05-27T12:44:15.051Z,39.51
2018-05-27T12:45:15.077Z,39.10
2018-05-27T12:46:15.097Z,40.47
2018-05-27T12:47:15.123Z,39.92
2018-05-27T12:48:15.149Z,38.35
2018-05-27T12:49:15.178Z,39.43
2018-05-27T12:50:15.203Z,39.84
2018-05-27T12:51:15.232Z,39.82
2018-05-27T12:52:15.255Z,40.89
2018-05-27T12:53:15.285Z,39.92